Terminal Aerodrome Forecast
Issued by NWS

Home | Current Version | Previous Version | Text Only | Print | Product List | Glossary On
Versions: 1 2 3 4 5 6 7 8 9 10 11 12 13 14 15 16 17 18 19 20 21 22 23 24
000
FTUS41 KCTP 260920 AAB
TAFLNS
TAF AMD
KLNS 260920Z 2609/2706 09008KT P6SM OVC015
     FM261200 10008KT P6SM OVC010
     FM270000 11005KT 5SM BR OVC005=

USA.gov is the U.S. government's official web portal to all federal, state and local government web resources and services.